Time;durP1;ratioP1;P1;durP2;ratioP2;P2;SDS_P1;SDS_P2;PMS_P1;PMS_P2;Temp;Humidity;BMP_temperature;BMP_pressure;BME280_temperature;BME280_humidity;BME280_pressure;Samples;Min_cycle;Max_cycle;Signal;HPM_P1;HPM_P2
2021/11/20 00:00:39;;;;;;;20.83;10.87;;;8.00;99.90;;;;;;5059711;28;20415;-80
2021/11/20 00:03:05;;;;;;;18.47;11.33;;;7.90;99.90;;;;;;5116489;28;20190;-80
2021/11/20 00:05:35;;;;;;;21.23;11.30;;;7.90;99.90;;;;;;5117737;28;20363;-81
2021/11/20 00:08:02;;;;;;;18.93;11.20;;;7.80;99.90;;;;;;5092984;28;20534;-82
2021/11/20 00:10:30;;;;;;;18.03;10.40;;;7.90;99.90;;;;;;5101591;28;20389;-81
2021/11/20 00:12:57;;;;;;;17.77;11.83;;;7.80;99.90;;;;;;5102881;28;20364;-81
2021/11/20 00:15:29;;;;;;;16.30;11.43;;;7.80;99.90;;;;;;5108927;28;20390;-81
2021/11/20 00:17:57;;;;;;;20.60;11.53;;;7.90;99.90;;;;;;5102308;28;20397;-78
2021/11/20 00:20:26;;;;;;;17.80;11.73;;;8.00;99.90;;;;;;5099991;28;20442;-80
2021/11/20 00:22:53;;;;;;;20.43;12.60;;;8.00;99.90;;;;;;5099412;28;20426;-81
2021/11/20 00:25:24;;;;;;;17.30;11.30;;;8.10;99.90;;;;;;5099093;28;20392;-81
2021/11/20 00:27:54;;;;;;;13.40;11.17;;;8.00;99.90;;;;;;5098715;28;20440;-80
2021/11/20 00:30:25;;;;;;;19.27;12.40;;;8.10;99.90;;;;;;5080607;28;20725;-80
2021/11/20 00:32:54;;;;;;;16.70;11.07;;;8.00;99.90;;;;;;5080795;28;20730;-79
2021/11/20 00:35:24;;;;;;;20.10;10.80;;;7.90;99.90;;;;;;5098127;28;20458;-80
2021/11/20 00:37:51;;;;;;;14.37;12.17;;;8.00;99.90;;;;;;5081521;28;20458;-82
2021/11/20 00:40:24;;;;;;;17.63;11.23;;;7.90;99.90;;;;;;5112054;28;20389;-79
2021/11/20 00:42:49;;;;;;;20.57;11.73;;;7.90;99.90;;;;;;5116913;28;20397;-79
2021/11/20 00:45:16;;;;;;;15.23;10.40;;;7.90;99.90;;;;;;5116742;28;20412;-80
2021/11/20 00:47:42;;;;;;;17.30;11.47;;;7.90;99.90;;;;;;5116125;28;20267;-80
2021/11/20 00:50:10;;;;;;;18.23;11.67;;;7.90;99.90;;;;;;5102791;28;20424;-81
2021/11/20 00:52:36;;;;;;;18.37;11.90;;;7.90;99.90;;;;;;5064705;28;20393;-81
2021/11/20 00:55:03;;;;;;;21.10;13.17;;;7.90;99.90;;;;;;5080194;28;20416;-81
2021/11/20 00:57:29;;;;;;;16.63;11.43;;;8.00;99.90;;;;;;5098617;28;20447;-82
2021/11/20 00:59:54;;;;;;;14.07;9.60;;;8.00;99.90;;;;;;5098451;28;20582;-81
2021/11/20 01:02:20;;;;;;;14.70;10.80;;;8.00;99.90;;;;;;5098435;28;20190;-81
2021/11/20 01:04:46;;;;;;;24.00;13.47;;;8.10;99.90;;;;;;5098440;28;20155;-81
2021/11/20 01:07:15;;;;;;;22.90;12.47;;;7.80;99.90;;;;;;5098291;28;20166;-81
2021/11/20 01:09:44;;;;;;;22.57;12.97;;;7.90;99.90;;;;;;5080593;28;20194;-81
2021/11/20 01:12:17;;;;;;;15.87;11.57;;;7.90;99.90;;;;;;5097549;28;20446;-81
2021/11/20 01:14:45;;;;;;;18.97;12.50;;;7.90;99.90;;;;;;5080704;28;20477;-81
2021/11/20 01:17:12;;;;;;;18.10;12.57;;;7.80;99.90;;;;;;5098627;28;20360;-80
2021/11/20 01:19:39;;;;;;;21.10;12.40;;;7.90;99.90;;;;;;5099268;28;20408;-81
2021/11/20 01:22:09;;;;;;;15.33;10.87;;;7.90;99.90;;;;;;5081340;28;20422;-81
2021/11/20 01:24:35;;;;;;;20.00;12.07;;;7.80;99.90;;;;;;5097814;28;20382;-81
2021/11/20 01:27:01;;;;;;;23.37;13.33;;;7.70;99.90;;;;;;5097569;28;20484;-81
2021/11/20 01:29:27;;;;;;;20.40;13.00;;;7.70;99.90;;;;;;5097080;28;20190;-81
2021/11/20 01:31:56;;;;;;;16.33;11.13;;;7.80;99.90;;;;;;5097614;28;20379;-81
2021/11/20 01:34:22;;;;;;;21.87;12.63;;;7.80;99.90;;;;;;5097058;28;20158;-81
2021/11/20 01:36:51;;;;;;;22.60;12.93;;;7.80;99.90;;;;;;5078819;28;20420;-82
2021/11/20 01:39:22;;;;;;;17.43;10.70;;;7.80;99.90;;;;;;5097183;28;20400;-81
2021/11/20 01:41:54;;;;;;;16.23;10.30;;;7.70;99.90;;;;;;5074278;28;20399;-81
2021/11/20 01:44:23;;;;;;;19.53;12.90;;;7.70;99.90;;;;;;5091850;28;20418;-81
2021/11/20 01:46:54;;;;;;;19.33;12.30;;;7.80;99.90;;;;;;5096340;28;20431;-81
2021/11/20 01:49:30;;;;;;;21.37;11.53;;;7.80;99.90;;;;;;5097207;28;20457;-82
2021/11/20 01:52:15;;;;;;;17.37;11.03;;;7.80;99.90;;;;;;5097117;28;20388;-80
2021/11/20 01:55:04;;;;;;;14.07;10.33;;;7.70;99.90;;;;;;5099280;28;20626;-81
2021/11/20 01:57:43;;;;;;;15.07;9.93;;;7.80;99.90;;;;;;5098241;28;20360;-81
2021/11/20 02:00:24;;;;;;;21.37;11.37;;;7.80;99.90;;;;;;5097668;28;20363;-80
2021/11/20 02:03:00;;;;;;;24.00;12.07;;;8.00;99.90;;;;;;5098129;28;20809;-80
2021/11/20 02:05:33;;;;;;;22.67;12.20;;;7.90;99.90;;;;;;5098375;28;20400;-81
2021/11/20 02:08:13;;;;;;;14.80;11.37;;;7.80;99.90;;;;;;5097029;28;20417;-81
2021/11/20 02:10:46;;;;;;;16.50;9.90;;;7.90;99.90;;;;;;5096995;28;20389;-81
2021/11/20 02:13:18;;;;;;;17.03;10.23;;;7.90;99.90;;;;;;5096684;28;20360;-82
2021/11/20 02:15:52;;;;;;;15.77;11.90;;;8.00;99.90;;;;;;5096730;28;20395;-81
2021/11/20 02:18:21;;;;;;;14.47;10.13;;;7.80;99.90;;;;;;5096897;28;20375;-81
2021/11/20 02:20:53;;;;;;;14.47;10.53;;;7.70;99.90;;;;;;5078369;28;20404;-81
2021/11/20 02:23:19;;;;;;;18.70;10.27;;;7.90;99.90;;;;;;5096873;28;20851;-80
2021/11/20 02:25:46;;;;;;;16.73;10.53;;;8.00;99.90;;;;;;5096309;28;20393;-81
2021/11/20 02:28:12;;;;;;;20.50;11.20;;;8.00;99.90;;;;;;5096494;28;20560;-81
2021/11/20 02:30:43;;;;;;;15.40;12.07;;;8.10;99.90;;;;;;5078348;28;20417;-81
2021/11/20 02:33:21;;;;;;;18.13;9.73;;;8.20;99.90;;;;;;5096376;28;20397;-82
2021/11/20 02:35:53;;;;;;;16.50;10.70;;;8.30;99.90;;;;;;5096286;28;20359;-81
2021/11/20 02:38:31;;;;;;;16.70;10.87;;;8.10;99.90;;;;;;5096192;28;20914;-81
2021/11/20 02:40:59;;;;;;;14.70;9.33;;;8.00;99.90;;;;;;5095981;28;20364;-81
2021/11/20 02:43:27;;;;;;;15.43;10.20;;;7.90;99.90;;;;;;5077883;28;20393;-81
2021/11/20 02:45:56;;;;;;;17.17;10.87;;;7.80;99.90;;;;;;5078060;28;20423;-81
2021/11/20 02:48:23;;;;;;;17.47;11.00;;;7.70;99.90;;;;;;5096098;28;20407;-81
2021/11/20 02:51:03;;;;;;;19.50;10.77;;;7.80;99.90;;;;;;5100545;28;20835;-81
2021/11/20 02:53:45;;;;;;;15.10;10.17;;;7.90;99.90;;;;;;4988725;28;20400;-81
2021/11/20 02:56:19;;;;;;;17.20;9.87;;;7.80;99.90;;;;;;4982081;28;20727;-81
2021/11/20 02:58:59;;;;;;;15.97;11.00;;;7.80;99.90;;;;;;4948896;29;20759;-81
2021/11/20 03:01:33;;;;;;;16.80;11.07;;;7.80;99.90;;;;;;4924503;29;20436;-81
2021/11/20 03:04:08;;;;;;;16.57;11.27;;;7.90;99.90;;;;;;4917305;29;20458;-80
2021/11/20 03:07:01;;;;;;;15.90;10.00;;;7.90;99.90;;;;;;4926818;29;20817;-80
2021/11/20 03:09:34;;;;;;;14.33;10.37;;;7.80;99.90;;;;;;4881987;29;20439;-80
2021/11/20 03:12:15;;;;;;;21.70;10.60;;;7.80;99.90;;;;;;4885671;29;20499;-80
2021/11/20 03:14:52;;;;;;;17.60;11.80;;;7.90;99.90;;;;;;4866933;29;20448;-81
2021/11/20 03:17:24;;;;;;;16.27;10.13;;;7.80;99.90;;;;;;4836499;29;20467;-81
2021/11/20 03:19:55;;;;;;;18.00;10.97;;;7.80;99.90;;;;;;4827075;29;20454;-81
2021/11/20 03:22:28;;;;;;;21.73;11.20;;;7.90;99.90;;;;;;4809540;29;20434;-81
2021/11/20 03:24:54;;;;;;;16.27;11.70;;;8.00;99.90;;;;;;4832838;29;20184;-83
2021/11/20 03:27:21;;;;;;;14.30;9.13;;;7.90;99.90;;;;;;4833828;29;20563;-82
2021/11/20 03:29:47;;;;;;;24.20;12.07;;;7.90;99.90;;;;;;4832749;29;20465;-82
2021/11/20 03:32:14;;;;;;;17.70;10.73;;;8.00;99.90;;;;;;4833246;29;20496;-82
2021/11/20 03:34:41;;;;;;;16.97;10.03;;;8.00;99.90;;;;;;4837071;29;20396;-82
2021/11/20 03:37:07;;;;;;;17.30;10.40;;;7.90;99.90;;;;;;4852681;29;20412;-83
2021/11/20 03:39:33;;;;;;;18.60;10.37;;;7.90;99.90;;;;;;4886457;29;20396;-82
2021/11/20 03:42:00;;;;;;;16.40;11.33;;;7.90;99.90;;;;;;4911441;29;20451;-82
2021/11/20 03:44:25;;;;;;;14.17;9.20;;;8.00;99.90;;;;;;4911511;29;20871;-82
2021/11/20 03:46:52;;;;;;;13.67;8.80;;;7.90;99.90;;;;;;4926201;29;20435;-82
2021/11/20 03:49:18;;;;;;;13.00;9.13;;;7.90;99.90;;;;;;4936800;29;20211;-81
2021/11/20 03:51:44;;;;;;;15.93;11.13;;;7.80;99.90;;;;;;5003584;28;20401;-81
2021/11/20 03:54:10;;;;;;;16.57;10.80;;;7.90;99.90;;;;;;5055529;28;20440;-82
2021/11/20 03:56:36;;;;;;;14.30;9.67;;;7.90;99.90;;;;;;5070846;28;20453;-82
2021/11/20 03:59:03;;;;;;;16.80;10.63;;;8.00;99.90;;;;;;5072796;28;20413;-84
2021/11/20 04:01:29;;;;;;;16.43;10.20;;;7.90;99.90;;;;;;5089862;28;20364;-83
2021/11/20 04:03:56;;;;;;;18.30;10.77;;;7.80;99.90;;;;;;5090717;28;20842;-82
2021/11/20 04:06:22;;;;;;;16.37;10.43;;;7.80;99.90;;;;;;5089575;28;20393;-83
2021/11/20 04:08:50;;;;;;;12.87;10.27;;;7.80;99.90;;;;;;5091008;28;20954;-83
2021/11/20 04:11:20;;;;;;;12.93;10.57;;;7.90;99.90;;;;;;5090950;28;20152;-83
2021/11/20 04:13:47;;;;;;;16.60;10.40;;;7.90;99.90;;;;;;5091522;28;20391;-83
2021/11/20 04:16:14;;;;;;;17.87;10.77;;;8.00;99.90;;;;;;5091235;28;20369;-83
2021/11/20 04:18:42;;;;;;;16.03;10.33;;;7.90;99.90;;;;;;5093550;28;20409;-80
2021/11/20 04:21:08;;;;;;;15.63;10.13;;;8.00;99.90;;;;;;5090028;28;20440;-81
2021/11/20 04:23:34;;;;;;;15.20;10.23;;;8.00;99.90;;;;;;5087723;28;20390;-82
2021/11/20 04:26:01;;;;;;;16.17;9.90;;;8.00;99.90;;;;;;5087257;28;20419;-82
2021/11/20 04:28:27;;;;;;;18.67;11.07;;;8.00;99.90;;;;;;5087025;28;20221;-81
2021/11/20 04:30:53;;;;;;;16.13;11.93;;;8.00;99.90;;;;;;5087915;28;20388;-81
2021/11/20 04:33:19;;;;;;;17.60;12.00;;;8.00;99.90;;;;;;5087400;28;20592;-82
2021/11/20 04:35:45;;;;;;;20.67;11.30;;;8.10;99.90;;;;;;5088860;28;20185;-83
2021/11/20 04:38:12;;;;;;;17.40;11.20;;;8.00;99.90;;;;;;5088651;28;20167;-82
2021/11/20 04:40:38;;;;;;;21.47;11.40;;;8.00;99.90;;;;;;5070712;28;20792;-82
2021/11/20 04:43:05;;;;;;;16.97;10.80;;;8.00;99.90;;;;;;5089027;28;20553;-83
2021/11/20 04:45:32;;;;;;;21.47;11.90;;;7.90;99.90;;;;;;5091803;28;20510;-83
2021/11/20 04:48:00;;;;;;;17.33;10.47;;;8.00;99.90;;;;;;5127434;28;20447;-83
2021/11/20 04:50:27;;;;;;;17.90;10.60;;;8.10;99.90;;;;;;5130173;28;20359;-83
2021/11/20 04:52:53;;;;;;;16.70;9.57;;;8.10;99.90;;;;;;5131177;28;20872;-83
2021/11/20 04:55:20;;;;;;;18.10;10.43;;;8.10;99.90;;;;;;5131204;28;20367;-83
2021/11/20 04:57:46;;;;;;;18.77;11.93;;;8.00;99.90;;;;;;5131173;28;20394;-83
2021/11/20 05:00:20;;;;;;;17.50;11.70;;;8.00;99.90;;;;;;5112949;28;20380;-84
2021/11/20 05:02:46;;;;;;;18.63;10.10;;;8.00;99.90;;;;;;5112950;28;20162;-83
2021/11/20 05:05:13;;;;;;;20.37;11.13;;;8.10;99.90;;;;;;5131490;28;20367;-84
2021/11/20 05:07:39;;;;;;;19.07;11.03;;;8.20;99.90;;;;;;5130774;28;20382;-83
2021/11/20 05:10:07;;;;;;;16.17;12.00;;;8.10;99.90;;;;;;5112813;28;20389;-83
2021/11/20 05:12:33;;;;;;;14.67;9.00;;;8.00;99.90;;;;;;5134185;28;20143;-80
2021/11/20 05:14:58;;;;;;;15.07;10.30;;;7.90;99.90;;;;;;5122212;28;20382;-80
2021/11/20 05:17:25;;;;;;;23.10;11.63;;;7.90;99.90;;;;;;5140299;28;20173;-80
2021/11/20 05:19:50;;;;;;;16.67;10.90;;;8.10;99.90;;;;;;5140535;27;20162;-80
2021/11/20 05:22:16;;;;;;;20.47;12.40;;;8.00;99.90;;;;;;5132791;28;20464;-82
2021/11/20 05:24:42;;;;;;;14.53;10.93;;;8.00;99.90;;;;;;5130140;28;20178;-83
2021/11/20 05:27:08;;;;;;;20.83;11.63;;;7.90;99.90;;;;;;5131394;28;20158;-83
2021/11/20 05:29:53;;;;;;;19.47;10.67;;;8.00;99.90;;;;;;5132602;28;20197;-82
2021/11/20 05:32:18;;;;;;;20.50;11.80;;;8.00;99.90;;;;;;5129369;28;20437;-82
2021/11/20 05:34:45;;;;;;;22.07;12.50;;;8.10;99.90;;;;;;5111430;28;20780;-83
2021/11/20 05:37:11;;;;;;;17.00;10.97;;;8.10;99.90;;;;;;5129289;28;20395;-82
2021/11/20 05:39:37;;;;;;;19.90;11.47;;;8.10;99.90;;;;;;5129913;28;20426;-82
2021/11/20 05:42:03;;;;;;;20.00;11.60;;;8.00;99.90;;;;;;5128053;28;20383;-82
2021/11/20 05:44:29;;;;;;;19.93;10.13;;;8.00;99.90;;;;;;5129347;28;20699;-82
2021/11/20 05:46:59;;;;;;;23.40;11.90;;;8.10;99.90;;;;;;5111836;28;20460;-82
2021/11/20 05:49:27;;;;;;;17.20;12.33;;;7.90;99.90;;;;;;5107856;28;20186;-82
2021/11/20 05:51:53;;;;;;;22.43;11.57;;;8.00;99.90;;;;;;5089811;28;20394;-82
2021/11/20 05:54:19;;;;;;;15.97;10.07;;;8.10;99.90;;;;;;5107999;28;20399;-82
2021/11/20 05:56:45;;;;;;;18.33;11.13;;;7.90;99.90;;;;;;5107213;28;20395;-83
2021/11/20 05:59:11;;;;;;;16.57;10.27;;;7.90;99.90;;;;;;5107801;28;20162;-82
2021/11/20 06:01:37;;;;;;;18.30;11.53;;;8.00;99.90;;;;;;5108132;28;20163;-82
2021/11/20 06:04:03;;;;;;;18.70;10.63;;;8.00;99.90;;;;;;5107800;28;20159;-82
2021/11/20 06:06:29;;;;;;;22.40;10.93;;;8.00;99.90;;;;;;5106226;28;20411;-81
2021/11/20 06:08:55;;;;;;;15.83;10.20;;;8.00;99.90;;;;;;5106053;28;20442;-82
2021/11/20 06:11:21;;;;;;;16.80;10.93;;;8.00;99.90;;;;;;5106428;28;20163;-82
2021/11/20 06:13:47;;;;;;;15.73;9.53;;;8.00;99.90;;;;;;5105594;28;20262;-82
2021/11/20 06:16:14;;;;;;;19.23;11.30;;;7.90;99.90;;;;;;5106453;28;20389;-81
2021/11/20 06:18:40;;;;;;;16.13;10.03;;;8.00;99.90;;;;;;5087423;28;20193;-82
2021/11/20 06:21:06;;;;;;;33.33;11.07;;;7.90;99.90;;;;;;5105546;28;20441;-82
2021/11/20 06:23:34;;;;;;;18.77;10.43;;;7.80;99.90;;;;;;5105865;28;20873;-82
2021/11/20 06:26:01;;;;;;;16.33;10.03;;;7.70;99.90;;;;;;5106568;28;20426;-82
2021/11/20 06:28:27;;;;;;;16.93;10.10;;;7.80;99.90;;;;;;5105985;28;20471;-83
2021/11/20 06:30:54;;;;;;;23.87;12.63;;;7.70;99.90;;;;;;5107422;28;20398;-83
2021/11/20 06:33:20;;;;;;;17.23;11.00;;;7.70;99.90;;;;;;5106238;28;20389;-83
2021/11/20 06:35:46;;;;;;;19.73;12.13;;;7.70;99.90;;;;;;5107692;28;20359;-82
2021/11/20 06:38:12;;;;;;;15.83;11.90;;;7.70;99.90;;;;;;5107544;28;20460;-83
2021/11/20 06:40:43;;;;;;;16.53;10.73;;;7.80;99.90;;;;;;5089808;28;20461;-82
2021/11/20 06:43:11;;;;;;;19.07;11.80;;;7.80;99.90;;;;;;5107630;28;20771;-82
2021/11/20 06:45:58;;;;;;;22.10;11.47;;;7.90;99.90;;;;;;5107190;28;20476;-82
2021/11/20 06:48:24;;;;;;;16.87;11.10;;;7.80;99.90;;;;;;5107972;28;20418;-82
2021/11/20 06:50:51;;;;;;;20.40;11.47;;;7.80;99.90;;;;;;5107576;28;20375;-82
2021/11/20 06:53:18;;;;;;;25.53;13.30;;;7.70;99.90;;;;;;5107363;28;20367;-83
2021/11/20 06:55:45;;;;;;;21.87;11.13;;;7.70;99.90;;;;;;5108484;28;20397;-83
2021/11/20 07:00:56;;;;;;;22.50;12.03;;;7.70;99.90;;;;;;5108228;28;20375;-83
2021/11/20 07:03:45;;;;;;;20.10;12.13;;;7.80;99.90;;;;;;5090352;28;20464;-82
2021/11/20 07:06:21;;;;;;;24.23;12.27;;;7.80;99.90;;;;;;5108503;28;20367;-81
2021/11/20 07:08:49;;;;;;;17.13;11.60;;;7.80;99.90;;;;;;5106827;28;20853;-83
2021/11/20 07:11:16;;;;;;;19.23;12.97;;;7.90;99.90;;;;;;5112507;28;20372;-82
2021/11/20 07:13:43;;;;;;;22.07;11.57;;;7.90;99.90;;;;;;5106984;28;20384;-82
2021/11/20 07:16:11;;;;;;;20.47;13.10;;;8.00;99.90;;;;;;5108395;28;20371;-82
2021/11/20 07:19:07;;;;;;;26.67;12.83;;;8.20;99.90;;;;;;5089453;28;20371;-81
2021/11/20 07:21:42;;;;;;;28.90;14.30;;;8.20;99.90;;;;;;4970955;28;20415;-81
2021/11/20 07:24:15;;;;;;;18.00;10.97;;;8.30;99.90;;;;;;4970480;28;20535;-81
2021/11/20 07:26:43;;;;;;;22.17;12.20;;;8.20;99.90;;;;;;4985691;28;20783;-81
2021/11/20 07:29:33;;;;;;;25.77;13.40;;;8.20;99.90;;;;;;4984155;28;20484;-80
2021/11/20 07:32:19;;;;;;;18.10;11.67;;;8.20;99.90;;;;;;4908363;29;20418;-81
2021/11/20 07:34:45;;;;;;;19.57;13.30;;;8.20;99.90;;;;;;4897844;29;20421;-82
2021/11/20 07:37:10;;;;;;;21.43;13.13;;;8.10;99.90;;;;;;4898265;29;20181;-81
2021/11/20 07:39:37;;;;;;;25.80;14.80;;;8.20;99.90;;;;;;4898034;29;20189;-81
2021/11/20 07:42:04;;;;;;;20.43;11.57;;;8.20;99.90;;;;;;4897769;29;20173;-82
2021/11/20 07:44:30;;;;;;;23.87;13.50;;;8.20;99.90;;;;;;4897638;29;20483;-82
2021/11/20 07:46:56;;;;;;;16.80;10.63;;;8.30;99.90;;;;;;4913043;29;20511;-82
2021/11/20 07:49:22;;;;;;;20.60;12.20;;;8.20;99.90;;;;;;4916848;29;20614;-82
2021/11/20 07:51:54;;;;;;;12.90;9.70;;;8.20;99.90;;;;;;4915756;29;20603;-81
2021/11/20 07:54:20;;;;;;;21.83;13.00;;;8.10;99.90;;;;;;4916244;29;20810;-78
2021/11/20 07:56:46;;;;;;;21.73;11.03;;;8.20;99.90;;;;;;4918531;29;20387;-82
2021/11/20 07:59:14;;;;;;;28.40;12.77;;;8.20;99.90;;;;;;4934103;29;20722;-82
2021/11/20 08:01:41;;;;;;;21.03;12.50;;;8.00;99.90;;;;;;4937374;29;20767;-81
2021/11/20 08:04:08;;;;;;;20.57;12.37;;;8.00;99.90;;;;;;4937971;29;20887;-79
2021/11/20 08:06:35;;;;;;;20.50;12.63;;;8.00;99.90;;;;;;4936802;29;20444;-79
2021/11/20 08:09:09;;;;;;;20.63;12.40;;;8.00;99.90;;;;;;4959968;28;20445;-79
2021/11/20 08:11:39;;;;;;;22.60;12.27;;;8.00;99.90;;;;;;4964731;28;20442;-78
2021/11/20 08:14:05;;;;;;;21.20;11.80;;;7.90;99.90;;;;;;4979778;28;20839;-79
2021/11/20 08:16:32;;;;;;;22.30;11.67;;;7.90;99.90;;;;;;5089785;28;20734;-80
2021/11/20 08:18:58;;;;;;;21.47;12.77;;;8.00;99.90;;;;;;5094724;28;20367;-80
2021/11/20 08:21:25;;;;;;;19.20;13.27;;;8.00;99.90;;;;;;5098267;28;20438;-81
2021/11/20 08:23:51;;;;;;;22.53;13.50;;;8.00;99.90;;;;;;5098923;28;20387;-81
2021/11/20 08:26:18;;;;;;;23.90;15.30;;;8.00;99.90;;;;;;5079895;28;20503;-80
2021/11/20 08:28:45;;;;;;;16.63;10.97;;;8.00;99.90;;;;;;5065909;28;20215;-80
2021/11/20 08:31:20;;;;;;;23.30;11.90;;;8.00;99.90;;;;;;5063742;28;20460;-82
2021/11/20 08:33:46;;;;;;;20.33;13.50;;;8.00;99.90;;;;;;5047714;28;20445;-81
2021/11/20 08:36:13;;;;;;;16.00;11.40;;;8.00;99.90;;;;;;5063080;28;20399;-81
2021/11/20 08:38:42;;;;;;;21.93;13.87;;;8.10;99.90;;;;;;5046652;28;20179;-81
2021/11/20 08:41:09;;;;;;;26.20;13.27;;;8.10;99.90;;;;;;4952233;28;20380;-81
2021/11/20 08:43:35;;;;;;;30.73;13.30;;;8.20;99.90;;;;;;4968935;28;20413;-82
2021/11/20 08:46:06;;;;;;;26.00;12.70;;;8.20;99.90;;;;;;5013088;28;20849;-81
2021/11/20 08:48:33;;;;;;;22.43;12.40;;;8.20;99.90;;;;;;5005142;28;20441;-83
2021/11/20 08:51:03;;;;;;;24.30;12.37;;;8.30;99.90;;;;;;4989670;28;20496;-82
2021/11/20 08:53:29;;;;;;;20.97;12.67;;;8.30;99.90;;;;;;5006528;28;20392;-82
2021/11/20 08:55:56;;;;;;;27.17;12.90;;;8.20;99.90;;;;;;5006109;28;20510;-82
2021/11/20 08:58:22;;;;;;;21.90;13.70;;;8.10;99.90;;;;;;5017011;28;20451;-81
2021/11/20 09:00:55;;;;;;;19.23;10.30;;;8.20;99.90;;;;;;5041770;28;20386;-81
2021/11/20 09:03:26;;;;;;;22.30;11.47;;;8.20;99.90;;;;;;5013122;28;20393;-82
2021/11/20 09:06:07;;;;;;;20.90;12.20;;;8.20;99.90;;;;;;5049691;28;20393;-82
2021/11/20 09:08:48;;;;;;;28.90;13.63;;;8.30;99.90;;;;;;5049676;28;20458;-83
2021/11/20 09:11:31;;;;;;;27.70;13.90;;;8.30;99.90;;;;;;5053608;28;20501;-82
2021/11/20 09:14:08;;;;;;;21.40;12.70;;;8.20;99.90;;;;;;5103074;28;20379;-82
2021/11/20 09:16:35;;;;;;;20.63;11.43;;;8.30;99.90;;;;;;5104992;28;20399;-82
2021/11/20 09:19:02;;;;;;;25.80;12.17;;;8.40;99.90;;;;;;5114668;28;20399;-82
2021/11/20 09:21:53;;;;;;;18.77;11.90;;;8.50;99.90;;;;;;5127135;28;20431;-81
2021/11/20 09:24:22;;;;;;;24.83;10.47;;;8.50;99.90;;;;;;5047538;28;20403;-80
2021/11/20 09:26:54;;;;;;;25.30;13.00;;;8.40;99.90;;;;;;5008898;28;20403;-80
2021/11/20 09:29:27;;;;;;;24.10;12.33;;;8.40;99.90;;;;;;4995999;28;20451;-80
2021/11/20 09:31:55;;;;;;;17.93;10.53;;;8.50;99.90;;;;;;5023422;28;20484;-80
2021/11/20 09:34:26;;;;;;;16.80;10.53;;;8.60;99.90;;;;;;5030365;28;20374;-80
2021/11/20 09:36:58;;;;;;;23.03;11.80;;;8.50;99.90;;;;;;4970284;28;20421;-79
2021/11/20 09:39:31;;;;;;;21.50;12.23;;;8.50;99.90;;;;;;4956177;28;20482;-80
2021/11/20 09:42:48;;;;;;;23.43;12.73;;;8.50;99.90;;;;;;4970840;29;20403;-79
2021/11/20 09:45:50;;;;;;;16.13;10.80;;;8.40;99.90;;;;;;4961029;29;20422;-78
2021/11/20 09:48:42;;;;;;;17.60;11.70;;;8.60;99.90;;;;;;4973375;29;20422;-80
2021/11/20 09:51:22;;;;;;;23.63;13.17;;;8.70;99.90;;;;;;4966958;29;20438;-81
2021/11/20 09:53:52;;;;;;;25.60;15.00;;;8.70;99.90;;;;;;4962519;29;20467;-81
2021/11/20 09:56:27;;;;;;;19.63;11.63;;;8.60;99.90;;;;;;4945336;29;20518;-81
2021/11/20 09:59:33;;;;;;;21.43;12.23;;;8.80;99.90;;;;;;4966381;29;20415;-81
2021/11/20 10:02:23;;;;;;;23.30;11.37;;;8.70;99.90;;;;;;4962122;29;20503;-80
2021/11/20 10:05:21;;;;;;;18.47;12.27;;;8.60;99.90;;;;;;4962717;29;20373;-82
2021/11/20 10:08:13;;;;;;;20.17;12.23;;;8.70;99.90;;;;;;4929302;29;20858;-81
2021/11/20 10:11:16;;;;;;;18.77;11.30;;;8.60;99.90;;;;;;4942387;29;20424;-80
2021/11/20 10:14:11;;;;;;;23.97;13.40;;;8.70;99.90;;;;;;4921320;29;20421;-80
2021/11/20 10:16:56;;;;;;;24.90;12.90;;;8.80;99.90;;;;;;4926261;29;20433;-77
2021/11/20 10:19:31;;;;;;;20.87;12.57;;;8.70;99.90;;;;;;4914195;29;20439;-77
2021/11/20 10:22:40;;;;;;;19.17;12.80;;;8.70;99.90;;;;;;4932001;29;20434;-77
2021/11/20 10:25:24;;;;;;;22.70;13.70;;;8.60;99.90;;;;;;4911793;29;20409;-81
2021/11/20 10:28:15;;;;;;;20.53;11.00;;;8.60;99.90;;;;;;4892678;29;20479;-81
2021/11/20 10:31:04;;;;;;;26.13;11.93;;;8.60;99.90;;;;;;4878334;29;20895;-81
2021/11/20 10:33:38;;;;;;;17.80;13.00;;;8.90;99.90;;;;;;4907153;29;20421;-81
2021/11/20 10:36:24;;;;;;;30.70;15.80;;;8.70;99.90;;;;;;4907162;29;20415;-81
2021/11/20 10:39:02;;;;;;;23.00;11.87;;;8.80;99.90;;;;;;4891314;29;20449;-83
2021/11/20 10:42:06;;;;;;;21.00;12.07;;;8.80;99.90;;;;;;4916376;29;20418;-81
2021/11/20 10:45:03;;;;;;;22.43;13.43;;;9.10;99.90;;;;;;4941796;28;20424;-80
2021/11/20 10:47:54;;;;;;;19.83;10.37;;;9.00;99.90;;;;;;4984587;28;20412;-80
2021/11/20 10:50:38;;;;;;;19.80;13.07;;;9.00;99.90;;;;;;4973633;28;20485;-81
2021/11/20 10:53:48;;;;;;;30.67;13.87;;;9.00;99.90;;;;;;4993262;28;20429;-81
2021/11/20 10:56:46;;;;;;;20.40;12.93;;;9.00;99.90;;;;;;5003410;28;20463;-82
2021/11/20 10:59:33;;;;;;;21.03;13.17;;;9.10;99.90;;;;;;5074092;28;20390;-82
2021/11/20 11:02:18;;;;;;;21.73;12.50;;;9.00;99.90;;;;;;5074377;28;20400;-82
2021/11/20 11:05:16;;;;;;;18.20;11.23;;;9.00;99.90;;;;;;5075083;28;20353;-82
2021/11/20 11:08:20;;;;;;;23.13;13.93;;;9.10;99.90;;;;;;5064059;28;20380;-82
2021/11/20 11:10:53;;;;;;;23.13;13.80;;;9.10;99.90;;;;;;5063361;28;20423;-82
2021/11/20 11:13:46;;;;;;;23.20;13.37;;;9.10;99.90;;;;;;5046795;28;20410;-82
2021/11/20 11:16:23;;;;;;;19.63;13.70;;;9.20;99.90;;;;;;5046474;28;20396;-83
2021/11/20 11:18:57;;;;;;;20.00;12.70;;;9.10;99.90;;;;;;5123210;28;20367;-83
2021/11/20 11:21:40;;;;;;;18.07;11.93;;;9.10;99.90;;;;;;5124451;28;20535;-83
2021/11/20 11:24:40;;;;;;;26.03;12.60;;;9.20;99.90;;;;;;5120448;28;20388;-82
2021/11/20 11:27:26;;;;;;;20.53;14.53;;;9.20;99.90;;;;;;5122062;28;20469;-82
2021/11/20 11:30:06;;;;;;;23.60;13.50;;;9.20;99.90;;;;;;5038921;28;20449;-80
2021/11/20 11:32:34;;;;;;;18.63;10.93;;;9.20;99.90;;;;;;5024889;28;20421;-81
2021/11/20 11:35:09;;;;;;;26.00;11.50;;;9.20;99.90;;;;;;5059323;28;20392;-80
2021/11/20 11:37:51;;;;;;;22.30;14.33;;;9.10;99.90;;;;;;5016715;28;20418;-81
2021/11/20 11:40:31;;;;;;;18.40;12.50;;;9.20;99.90;;;;;;5001058;28;20422;-80
2021/11/20 11:43:23;;;;;;;24.93;14.10;;;9.00;99.90;;;;;;5012577;28;20411;-83
2021/11/20 11:46:13;;;;;;;24.50;12.97;;;9.10;99.90;;;;;;5011782;28;20494;-82
2021/11/20 11:49:12;;;;;;;18.93;11.30;;;9.00;99.90;;;;;;4989130;28;20542;-81
2021/11/20 11:52:17;;;;;;;19.73;13.73;;;9.10;99.90;;;;;;5020191;28;20534;-82
2021/11/20 11:54:48;;;;;;;28.30;14.50;;;9.10;99.90;;;;;;4993235;28;20415;-83
2021/11/20 11:57:34;;;;;;;26.83;14.90;;;9.00;99.90;;;;;;5011535;28;20400;-82
2021/11/20 12:00:27;;;;;;;23.10;11.57;;;9.00;99.90;;;;;;5014462;28;20400;-82
2021/11/20 12:02:55;;;;;;;22.27;12.23;;;9.20;99.90;;;;;;5066811;28;20444;-83
2021/11/20 12:05:42;;;;;;;26.53;14.10;;;9.10;99.90;;;;;;5050409;28;20790;-83
2021/11/20 12:08:23;;;;;;;24.30;15.27;;;9.20;99.90;;;;;;5065245;28;20781;-83
2021/11/20 12:10:54;;;;;;;22.20;13.77;;;9.30;99.90;;;;;;5108805;28;20408;-81
2021/11/20 12:13:33;;;;;;;25.83;14.97;;;9.40;99.90;;;;;;5095802;28;20856;-82
2021/11/20 12:16:20;;;;;;;27.27;12.07;;;9.40;99.90;;;;;;5082192;28;20416;-81
2021/11/20 12:18:57;;;;;;;22.37;14.53;;;9.20;99.90;;;;;;5040393;28;20895;-82
2021/11/20 12:21:39;;;;;;;18.50;12.13;;;9.30;99.90;;;;;;5026576;28;20447;-81
2021/11/20 12:24:30;;;;;;;28.00;15.07;;;9.30;99.90;;;;;;5024648;28;20450;-80
2021/11/20 12:27:19;;;;;;;20.87;12.87;;;9.40;99.90;;;;;;5006169;28;20375;-80
2021/11/20 12:30:13;;;;;;;22.33;13.87;;;9.40;99.90;;;;;;5038115;28;20493;-79
2021/11/20 12:33:05;;;;;;;24.80;13.37;;;9.50;99.90;;;;;;5035662;28;20402;-81
2021/11/20 12:35:59;;;;;;;20.70;12.10;;;9.40;99.90;;;;;;5034735;28;20453;-80
2021/11/20 12:38:55;;;;;;;18.30;12.33;;;9.40;99.90;;;;;;5049098;28;20515;-81
2021/11/20 12:41:43;;;;;;;24.80;11.70;;;9.40;99.90;;;;;;5043634;28;20424;-81
2021/11/20 12:44:22;;;;;;;18.73;12.50;;;9.40;99.90;;;;;;5027685;28;20476;-81
2021/11/20 12:47:11;;;;;;;22.20;14.40;;;9.50;99.90;;;;;;5007002;28;20452;-81
2021/11/20 12:50:08;;;;;;;23.47;11.87;;;9.70;99.90;;;;;;5014802;28;20451;-81
2021/11/20 12:53:04;;;;;;;20.07;12.30;;;9.70;99.90;;;;;;4992156;28;20407;-81
2021/11/20 12:56:20;;;;;;;19.87;12.33;;;9.70;99.90;;;;;;4956116;29;20405;-82
2021/11/20 12:59:09;;;;;;;16.67;12.30;;;9.80;99.90;;;;;;4935008;28;21055;-81
2021/11/20 13:01:41;;;;;;;31.93;15.20;;;9.80;99.90;;;;;;4942440;29;20415;-81
2021/11/20 13:04:39;;;;;;;19.47;13.67;;;9.70;99.90;;;;;;4946450;29;20724;-80
2021/11/20 13:07:14;;;;;;;17.23;12.40;;;9.70;99.90;;;;;;4895918;29;20388;-81
2021/11/20 13:10:00;;;;;;;18.87;11.80;;;9.70;99.90;;;;;;4895469;29;20796;-81
2021/11/20 13:12:39;;;;;;;20.33;13.23;;;9.80;99.90;;;;;;4910746;29;20419;-81
2021/11/20 13:15:38;;;;;;;17.83;11.27;;;9.90;99.90;;;;;;4893978;29;20414;-81